Themabewertung:
  • 0 Bewertung(en) - 0 im Durchschnitt
  • 1
  • 2
  • 3
  • 4
  • 5
Runwaykonfiguration
#1
Aktuelle Runwaykonfiguration werden hier gepostet.
Gruß
Olav

Olav`s Spotterbrowser
Meine Bilder bei flugzeugbilder.de
Meine Bilder bei planespotters.net

Es geht nicht darum, dem Leben mehr Tage zu geben, sondern den Tagen mehr Leben.

Cicely Saunders
Zitieren
#2
EDDH/HAM am 22.07.2017 - 0925


Landing: 15

Takeoff : 05

Gruß

Helmut

Pisten 15/33 (Norderstedt/Alsterdorf) von Mi. den 06.09.17 , 06:00 (Betriebsanfang) Uhr bis Mi. 20.09.17 , 23:00 Uhr (Betriebsende)

Data at: 0727 UTC 22 Jul 2017
METAR for:
EDDH (Hamburg Arpt, --, DL)
Text:
EDDH 220720Z 10010KT CAVOK 19/15 Q1014 NOSIG
Temperature:
19.0°C ( 66°F)
Dewpoint:
15.0°C ( 59°F) [RH = 78%]
Pressure (altimeter):
29.94 inches Hg (1014.0 mb)
Winds:
from the E (100 degrees) at 12 MPH (10 knots; 5.1 m/s)
Visibility:
6 or more sm (10+ km)
Ceiling:
ceiling and visibility are OK
Clouds:
unknown
"Nichts im Leben muss gefürchtet werden.
Es muss nur verstanden werden"

Eileen Collins, Astronautin
Zitieren
#3
EDDH/HAM am 22.07.2017 - 1240


Landing: 15

Takeoff : 23

Gruß

Helmut

Pisten 15/33 (Norderstedt/Alsterdorf) von Mi. den 06.09.17 , 06:00 (Betriebsanfang) Uhr bis Mi. 20.09.17 , 23:00 Uhr (Betriebsende)

Data at: 1042 UTC 22 Jul 2017
METAR for:
EDDH (Hamburg Arpt, --, DL)
Text:
EDDH 221020Z 16004KT 100V180 8000 RA FEW010 BKN030 18/17 Q1014 TEMPO 4500 NSW
Temperature:
18.0°C ( 64°F)
Dewpoint:
17.0°C ( 63°F) [RH = 94%]
Pressure (altimeter):
29.94 inches Hg (1014.0 mb)
Winds:
from the SSE (160 degrees) at 5 MPH (4 knots; 2.1 m/s)
Visibility:
5 sm ( 8 km)
Ceiling:
3000 feet AGL
Clouds:
few clouds at 1000 feet AGL, broken clouds at 3000 feet AGL
Weather:
RA (moderate rain)
"Nichts im Leben muss gefürchtet werden.
Es muss nur verstanden werden"

Eileen Collins, Astronautin
Zitieren


Möglicherweise verwandte Themen...
Thema Verfasser Antworten Ansichten Letzter Beitrag
  05.07.2017 Herby 1 839 10.07.2017, 08:43
Letzter Beitrag: Herby
  EDDH/HAM 22.06.2017 (Donnerstag) Ankündigung Axel1967 0 771 21.06.2017, 18:34
Letzter Beitrag: Axel1967
  EDDH/HAM 21.06.2017 (Mittwoch) Ankündigung Axel1967 0 480 20.06.2017, 17:43
Letzter Beitrag: Axel1967
  EDDH/HAM 20.06.2017 (Dienstag) Ankündigung Axel1967 0 410 19.06.2017, 20:30
Letzter Beitrag: Axel1967
  EDDH/HAM 19.06.2017 (Montag) Ankündigung Axel1967 0 465 18.06.2017, 19:44
Letzter Beitrag: Axel1967
  EDDH/HAM 18.06.2017 (Sonntag) Ankündigung Axel1967 3 772 18.06.2017, 14:30
Letzter Beitrag: DC1030
  EDDH/HAM 17.06.2017 (Samstag) Ankündigung Axel1967 1 548 16.06.2017, 22:41
Letzter Beitrag: GWT-Spotter
  EDDH/HAM 16.06.2017 (Freitag) Ankündigung Axel1967 0 499 15.06.2017, 16:34
Letzter Beitrag: Axel1967

Gehe zu:


Benutzer, die gerade dieses Thema anschauen: 1 Gast/Gäste